Time;durP1;ratioP1;P1;durP2;ratioP2;P2;SDS_P1;SDS_P2;PMS_P1;PMS_P2;Temp;Humidity;BMP_temperature;BMP_pressure;BME280_temperature;BME280_humidity;BME280_pressure;Samples;Min_cycle;Max_cycle;Signal;HPM_P1;HPM_P2
2022/01/17 00:00:19;;;;;;;1.85;1.75;;;;;;;;;;7330202;19;153563;-15
2022/01/17 00:02:55;;;;;;;1.90;1.80;;;;;;;;;;7329772;19;161985;-15
2022/01/17 00:05:27;;;;;;;1.90;1.80;;;;;;;;;;7333051;19;162557;-14
2022/01/17 00:07:58;;;;;;;1.70;1.60;;;;;;;;;;7329988;19;154354;-14
2022/01/17 00:10:29;;;;;;;2.13;2.03;;;;;;;;;;7328728;19;153519;-14
2022/01/17 00:13:01;;;;;;;2.15;1.85;;;;;;;;;;7329693;19;162216;-14
2022/01/17 00:15:43;;;;;;;2.25;1.63;;;;;;;;;;7329500;19;162491;-15
2022/01/17 00:18:32;;;;;;;2.10;1.90;;;;;;;;;;7330944;19;154011;-15
2022/01/17 00:21:03;;;;;;;1.92;1.80;;;;;;;;;;7329770;19;153532;-14
2022/01/17 00:23:35;;;;;;;2.90;1.70;;;;;;;;;;7331933;19;161712;-15
2022/01/17 00:26:06;;;;;;;2.10;1.60;;;;;;;;;;7330915;19;162226;-14
2022/01/17 00:28:38;;;;;;;1.63;1.45;;;;;;;;;;7332698;19;154013;-14
2022/01/17 00:31:09;;;;;;;2.35;1.75;;;;;;;;;;7330959;19;153649;-14
2022/01/17 00:33:43;;;;;;;1.83;1.70;;;;;;;;;;7332353;19;162155;-13
2022/01/17 00:36:14;;;;;;;1.70;1.60;;;;;;;;;;7332132;19;162414;-14
2022/01/17 00:38:46;;;;;;;1.52;1.40;;;;;;;;;;7332346;19;154475;-13
2022/01/17 00:41:17;;;;;;;1.77;1.55;;;;;;;;;;7331483;19;153806;-14
2022/01/17 00:43:48;;;;;;;1.52;1.42;;;;;;;;;;7330479;19;161935;-15
2022/01/17 00:46:19;;;;;;;1.40;1.40;;;;;;;;;;7329057;19;162445;-14
2022/01/17 00:48:53;;;;;;;1.27;1.27;;;;;;;;;;7330005;19;154037;-13
2022/01/17 00:51:24;;;;;;;1.70;1.60;;;;;;;;;;7331328;19;153599;-14
2022/01/17 00:53:56;;;;;;;1.65;1.55;;;;;;;;;;7329152;19;161803;-15
2022/01/17 00:56:28;;;;;;;1.50;1.40;;;;;;;;;;7330479;19;162713;-16
2022/01/17 08:35:23;;;;;;;58.67;50.00;;;;;;;;;;7372342;19;132398;-16
2022/01/17 08:37:55;;;;;;;55.72;49.05;;;;;;;;;;7368387;19;153841;-14
2022/01/17 08:40:27;;;;;;;55.50;46.05;;;;;;;;;;7364242;19;162065;-15
2022/01/17 08:42:58;;;;;;;55.20;46.38;;;;;;;;;;7363761;19;162628;-14
2022/01/17 08:45:30;;;;;;;54.03;46.63;;;;;;;;;;7364366;19;155412;-14
2022/01/17 08:48:16;;;;;;;55.65;46.08;;;;;;;;;;7364415;19;153622;-15
2022/01/17 08:50:51;;;;;;;52.67;44.38;;;;;;;;;;7364206;19;161579;-14
2022/01/17 08:53:22;;;;;;;55.13;45.05;;;;;;;;;;7364276;19;162329;-14
2022/01/17 08:55:53;;;;;;;51.15;44.10;;;;;;;;;;7364206;19;153873;-14
2022/01/17 08:58:24;;;;;;;51.63;44.10;;;;;;;;;;7364372;19;153716;-14
2022/01/17 09:00:58;;;;;;;51.47;42.22;;;;;;;;;;7363843;19;161786;-14
2022/01/17 09:03:29;;;;;;;49.33;40.90;;;;;;;;;;7363121;19;162183;-13
2022/01/17 09:06:03;;;;;;;50.30;42.65;;;;;;;;;;7363440;19;153926;-16
2022/01/17 09:08:35;;;;;;;45.88;40.70;;;;;;;;;;7364027;19;153660;-14
2022/01/17 09:11:06;;;;;;;48.15;40.75;;;;;;;;;;7363483;19;161809;-14
2022/01/17 09:13:38;;;;;;;47.80;40.95;;;;;;;;;;7363744;19;162313;-14
2022/01/17 09:16:09;;;;;;;45.95;40.58;;;;;;;;;;7363971;19;154056;-13
2022/01/17 09:18:40;;;;;;;42.90;38.05;;;;;;;;;;7363957;19;153673;-13
2022/01/17 09:21:14;;;;;;;44.05;38.75;;;;;;;;;;7362940;19;161865;-14
2022/01/17 09:23:45;;;;;;;44.35;38.15;;;;;;;;;;7362406;19;162325;-15
2022/01/17 09:26:18;;;;;;;44.00;38.72;;;;;;;;;;7363688;19;153945;-15
2022/01/17 09:28:52;;;;;;;44.88;37.90;;;;;;;;;;7363534;19;153689;-15
2022/01/17 09:31:24;;;;;;;44.40;38.78;;;;;;;;;;7362809;19;162027;-14
2022/01/17 09:33:56;;;;;;;42.80;38.10;;;;;;;;;;7361402;19;162292;-15
2022/01/17 09:36:33;;;;;;;40.63;35.90;;;;;;;;;;7332249;19;154736;-14
2022/01/17 09:39:06;;;;;;;43.17;36.80;;;;;;;;;;7333159;19;153627;-15
2022/01/17 09:41:38;;;;;;;41.40;36.80;;;;;;;;;;7333916;19;161947;-14
2022/01/17 09:44:10;;;;;;;41.15;35.88;;;;;;;;;;7332993;19;162472;-12
2022/01/17 09:46:45;;;;;;;41.10;36.63;;;;;;;;;;7333626;19;153954;-14
2022/01/17 09:49:22;;;;;;;44.33;36.88;;;;;;;;;;7334097;19;153583;-17
2022/01/17 09:52:14;;;;;;;44.20;38.78;;;;;;;;;;7333472;19;161821;-15
2022/01/17 09:54:47;;;;;;;41.05;36.67;;;;;;;;;;7333456;19;162483;-14
2022/01/17 09:57:19;;;;;;;41.63;35.77;;;;;;;;;;7333751;19;153638;-14
2022/01/17 09:59:54;;;;;;;41.07;35.57;;;;;;;;;;7333929;19;153605;-14
2022/01/17 10:02:25;;;;;;;38.50;33.90;;;;;;;;;;7333332;19;162080;-13
2022/01/17 10:04:57;;;;;;;37.92;33.28;;;;;;;;;;7331961;19;162520;-14
2022/01/17 10:07:53;;;;;;;36.88;32.47;;;;;;;;;;7333309;19;153966;-14
2022/01/17 10:10:42;;;;;;;38.00;33.25;;;;;;;;;;7333474;19;153525;-14
2022/01/17 10:13:18;;;;;;;38.17;34.08;;;;;;;;;;7333052;19;162025;-14
2022/01/17 10:16:00;;;;;;;37.03;33.13;;;;;;;;;;7332905;19;162653;-14
2022/01/17 10:18:39;;;;;;;37.53;33.23;;;;;;;;;;7333367;19;154099;-14
2022/01/17 10:21:15;;;;;;;36.50;32.45;;;;;;;;;;7333224;19;153615;-14
2022/01/17 10:29:58;;;;;;;36.28;32.38;;;;;;;;;;7337090;19;153996;-15
2022/01/17 10:35:24;;;;;;;36.22;31.83;;;;;;;;;;7329639;19;161998;-14
2022/01/17 10:38:04;;;;;;;35.53;31.40;;;;;;;;;;7332066;19;162282;-15
2022/01/17 10:40:41;;;;;;;34.63;30.67;;;;;;;;;;7332234;19;154022;-14
2022/01/17 10:43:25;;;;;;;33.97;30.35;;;;;;;;;;7331844;19;153600;-14
2022/01/17 10:45:57;;;;;;;34.92;31.13;;;;;;;;;;7328984;19;162088;-13
2022/01/17 10:48:34;;;;;;;32.75;29.20;;;;;;;;;;7331078;19;162311;-15
2022/01/17 10:51:07;;;;;;;33.78;29.90;;;;;;;;;;7332204;19;153958;-14
2022/01/17 10:53:40;;;;;;;32.38;28.98;;;;;;;;;;7330895;19;153761;-14
2022/01/17 10:56:17;;;;;;;31.67;28.27;;;;;;;;;;7331856;19;162219;-14
2022/01/17 10:58:49;;;;;;;31.58;28.25;;;;;;;;;;7331549;19;162640;-14
2022/01/17 11:01:21;;;;;;;31.38;28.05;;;;;;;;;;7331843;19;153741;-13
2022/01/17 11:04:01;;;;;;;32.90;29.42;;;;;;;;;;7330581;19;153593;-14
2022/01/17 11:06:32;;;;;;;30.90;27.58;;;;;;;;;;7328027;19;161761;-13
2022/01/17 11:09:08;;;;;;;30.58;27.33;;;;;;;;;;7330053;19;162333;-14
2022/01/17 11:11:43;;;;;;;29.48;26.38;;;;;;;;;;7331776;19;153950;-15
2022/01/17 11:14:17;;;;;;;29.75;26.55;;;;;;;;;;7331770;19;153564;-14
2022/01/17 11:16:49;;;;;;;30.27;27.08;;;;;;;;;;7331161;19;161774;-14
2022/01/17 11:22:09;;;;;;;30.73;27.48;;;;;;;;;;7330313;19;154354;-15
2022/01/17 11:24:40;;;;;;;29.15;26.05;;;;;;;;;;7330849;19;153561;-14
2022/01/17 11:27:14;;;;;;;28.98;25.92;;;;;;;;;;7330995;19;161762;-14
2022/01/17 11:29:47;;;;;;;28.25;25.35;;;;;;;;;;7330926;19;162435;-14
2022/01/17 11:32:19;;;;;;;27.77;24.80;;;;;;;;;;7331270;19;153820;-13
2022/01/17 11:34:51;;;;;;;27.55;24.55;;;;;;;;;;7328285;19;153562;-14
2022/01/17 11:37:23;;;;;;;28.10;25.30;;;;;;;;;;7330683;19;161804;-14
2022/01/17 11:39:57;;;;;;;27.70;24.90;;;;;;;;;;7330615;19;162253;-14
2022/01/17 11:42:37;;;;;;;27.80;24.88;;;;;;;;;;7330967;19;153938;-13
2022/01/17 11:45:41;;;;;;;27.63;24.73;;;;;;;;;;7330125;19;153689;-14
2022/01/17 11:48:21;;;;;;;26.65;23.85;;;;;;;;;;7329391;19;163108;-14
2022/01/17 11:50:54;;;;;;;26.20;23.52;;;;;;;;;;7330120;19;162396;-15
2022/01/17 11:53:52;;;;;;;;;;;;;;;;;;7331262;19;154045;-13
2022/01/17 11:56:42;;;;;;;25.90;23.15;;;;;;;;;;7330903;19;153296;-14
2022/01/17 11:59:37;;;;;;;24.63;22.08;;;;;;;;;;7329236;19;161782;-14
2022/01/17 12:02:36;;;;;;;25.08;22.45;;;;;;;;;;7329950;19;162780;-14
2022/01/17 12:05:46;;;;;;;24.15;21.60;;;;;;;;;;7329076;19;154081;-13
2022/01/17 12:08:22;;;;;;;26.52;23.80;;;;;;;;;;7330092;19;153802;-15
2022/01/17 12:10:57;;;;;;;23.48;21.00;;;;;;;;;;7329916;19;162148;-15
2022/01/17 12:13:39;;;;;;;24.33;21.77;;;;;;;;;;7329774;19;162370;-15
2022/01/17 12:16:22;;;;;;;23.60;21.25;;;;;;;;;;7330135;19;154057;-14
2022/01/17 12:19:07;;;;;;;24.73;22.27;;;;;;;;;;7329861;19;153909;-13
2022/01/17 12:21:44;;;;;;;22.65;20.35;;;;;;;;;;7329253;19;162068;-14
2022/01/17 12:24:34;;;;;;;23.85;21.35;;;;;;;;;;7329157;19;162331;-13
2022/01/17 12:27:19;;;;;;;23.05;20.65;;;;;;;;;;7327192;19;154285;-14
2022/01/17 12:29:59;;;;;;;23.00;20.58;;;;;;;;;;7329669;19;153593;-14
2022/01/17 12:32:50;;;;;;;23.25;20.85;;;;;;;;;;7329401;19;161930;-13
2022/01/17 12:35:29;;;;;;;23.65;21.15;;;;;;;;;;7327022;19;162579;-13
2022/01/17 12:38:08;;;;;;;19.52;17.08;;;;;;;;;;7333039;19;153929;-15
2022/01/17 12:40:56;;;;;;;6.82;6.13;;;;;;;;;;7332917;19;153685;-13
2022/01/17 12:43:33;;;;;;;7.25;6.55;;;;;;;;;;7328377;19;162338;-14
2022/01/17 12:46:07;;;;;;;8.35;7.57;;;;;;;;;;7327073;19;162349;-15
2022/01/17 12:48:41;;;;;;;9.75;8.75;;;;;;;;;;7328864;19;154066;-14
2022/01/17 12:51:12;;;;;;;10.88;9.77;;;;;;;;;;7328976;19;153792;-14
2022/01/17 12:53:51;;;;;;;11.27;10.10;;;;;;;;;;7328639;19;162122;-14
2022/01/17 12:56:22;;;;;;;11.75;10.55;;;;;;;;;;7328511;19;162321;-14
2022/01/17 12:58:53;;;;;;;11.50;10.38;;;;;;;;;;7328467;19;154054;-15
2022/01/17 13:01:24;;;;;;;11.65;10.55;;;;;;;;;;7328297;19;154753;-17
2022/01/17 13:04:06;;;;;;;11.70;10.60;;;;;;;;;;7327773;19;161983;-15
2022/01/17 13:06:37;;;;;;;11.23;10.13;;;;;;;;;;7325654;19;162490;-15
2022/01/17 13:09:13;;;;;;;10.48;9.48;;;;;;;;;;7327190;19;154067;-13
2022/01/17 13:11:46;;;;;;;10.35;9.35;;;;;;;;;;7333738;19;153441;-14
2022/01/17 13:14:18;;;;;;;;;;;;;;;;;;7338287;19;161825;-15
2022/01/17 13:16:51;;;;;;;10.68;9.68;;;;;;;;;;7333149;19;162495;-16
2022/01/17 13:19:25;;;;;;;9.88;8.98;;;;;;;;;;7332808;19;154128;-14
2022/01/17 13:21:56;;;;;;;9.45;8.30;;;;;;;;;;7333550;19;153629;-14
2022/01/17 13:24:34;;;;;;;9.38;8.57;;;;;;;;;;7333325;19;161893;-15
2022/01/17 13:27:09;;;;;;;9.35;8.43;;;;;;;;;;7331864;19;162387;-15
2022/01/17 13:29:42;;;;;;;9.38;8.48;;;;;;;;;;7333681;19;154088;-14
2022/01/17 13:32:14;;;;;;;9.60;8.70;;;;;;;;;;7337074;19;153552;-13
2022/01/17 13:34:48;;;;;;;5.53;5.03;;;;;;;;;;7330113;19;161918;-13
2022/01/17 13:37:19;;;;;;;5.97;5.38;;;;;;;;;;7332130;19;162440;-17
2022/01/17 13:39:58;;;;;;;7.13;6.43;;;;;;;;;;7332620;19;153952;-15
2022/01/17 13:42:56;;;;;;;7.30;6.43;;;;;;;;;;7336302;19;153508;-13
2022/01/17 13:45:32;;;;;;;7.95;7.18;;;;;;;;;;7335066;19;162154;-14
2022/01/17 13:48:06;;;;;;;8.02;7.32;;;;;;;;;;7334933;19;162590;-14
2022/01/17 13:50:40;;;;;;;;;;;;;;;;;;7335165;19;153974;-15
2022/01/17 13:53:11;;;;;;;7.32;6.68;;;;;;;;;;7335613;19;153291;-14
2022/01/17 13:55:45;;;;;;;7.38;6.72;;;;;;;;;;7334438;19;161780;-15
2022/01/17 13:58:19;;;;;;;7.63;6.93;;;;;;;;;;7336462;19;162544;-14
2022/01/17 14:00:53;;;;;;;6.82;6.22;;;;;;;;;;7332774;19;154063;-15
2022/01/17 14:03:26;;;;;;;7.50;6.80;;;;;;;;;;7329821;19;153609;-13
2022/01/17 14:06:09;;;;;;;6.97;6.38;;;;;;;;;;7330410;19;162173;-13
2022/01/17 14:08:44;;;;;;;6.78;6.15;;;;;;;;;;7331084;19;162393;-15
2022/01/17 14:11:18;;;;;;;7.45;6.75;;;;;;;;;;7327840;19;154219;-14
2022/01/17 14:13:52;;;;;;;7.47;6.82;;;;;;;;;;7328549;19;153542;-13
2022/01/17 14:16:25;;;;;;;7.60;6.80;;;;;;;;;;7333464;19;161787;-13
2022/01/17 14:18:58;;;;;;;7.50;6.80;;;;;;;;;;7330243;19;162501;-14
2022/01/17 14:21:56;;;;;;;7.17;6.47;;;;;;;;;;7330112;19;154260;-15
2022/01/17 14:24:29;;;;;;;7.70;6.60;;;;;;;;;;7335733;19;153580;-15
2022/01/17 14:27:03;;;;;;;7.13;6.43;;;;;;;;;;7331270;19;162203;-15
2022/01/17 14:29:34;;;;;;;;;;;;;;;;;;7333062;19;162512;-14
2022/01/17 14:32:06;;;;;;;3.38;3.08;;;;;;;;;;7335061;19;154118;-15
2022/01/17 14:34:39;;;;;;;4.80;3.65;;;;;;;;;;7332385;19;153549;-15
2022/01/17 14:37:15;;;;;;;;;;;;;;;;;;7331388;19;161942;-15
2022/01/17 14:39:49;;;;;;;3.88;3.25;;;;;;;;;;7332331;19;162677;-14
2022/01/17 14:42:26;;;;;;;2.83;2.50;;;;;;;;;;7332400;19;154032;-15
2022/01/17 14:45:00;;;;;;;3.17;2.90;;;;;;;;;;7331963;19;154167;-15
2022/01/17 14:47:40;;;;;;;4.78;3.33;;;;;;;;;;7330692;19;161997;-14
2022/01/17 14:50:13;;;;;;;3.08;2.78;;;;;;;;;;7331572;19;162488;-15
2022/01/17 14:52:48;;;;;;;5.10;2.75;;;;;;;;;;7331744;19;154003;-15
2022/01/17 14:55:48;;;;;;;3.63;3.00;;;;;;;;;;7331868;19;153533;-15
2022/01/17 15:01:03;;;;;;;3.65;2.45;;;;;;;;;;7331224;19;162358;-15
2022/01/17 15:03:37;;;;;;;2.83;2.63;;;;;;;;;;7331556;19;153910;-15
2022/01/17 15:06:09;;;;;;;2.60;2.40;;;;;;;;;;7331383;19;153499;-14
2022/01/17 15:08:45;;;;;;;2.50;2.30;;;;;;;;;;7329033;19;162088;-15
2022/01/17 15:11:16;;;;;;;2.40;2.20;;;;;;;;;;7331191;19;162325;-15
2022/01/17 15:13:48;;;;;;;4.25;2.42;;;;;;;;;;7331474;19;154059;-18
2022/01/17 15:16:19;;;;;;;3.65;2.38;;;;;;;;;;7331501;19;153624;-15
2022/01/17 15:18:50;;;;;;;2.67;2.20;;;;;;;;;;7331174;19;161971;-14
2022/01/17 15:21:21;;;;;;;2.40;2.20;;;;;;;;;;7331161;19;162879;-15
2022/01/17 15:23:55;;;;;;;2.20;2.08;;;;;;;;;;7331460;19;153968;-15
2022/01/17 15:26:27;;;;;;;2.20;2.00;;;;;;;;;;7331356;19;153516;-13
2022/01/17 15:28:59;;;;;;;2.20;2.00;;;;;;;;;;7328459;19;161830;-14
2022/01/17 15:31:32;;;;;;;2.08;1.98;;;;;;;;;;7330429;19;162613;-14
2022/01/17 15:34:04;;;;;;;2.30;2.10;;;;;;;;;;7328158;19;154013;-14
2022/01/17 15:36:35;;;;;;;1.75;1.65;;;;;;;;;;7331072;19;153577;-14
2022/01/17 15:39:09;;;;;;;2.35;2.10;;;;;;;;;;7330613;19;161823;-14
2022/01/17 15:41:40;;;;;;;2.33;1.80;;;;;;;;;;7329807;19;162407;-14
2022/01/17 15:44:11;;;;;;;2.55;1.73;;;;;;;;;;7329688;19;154049;-14
2022/01/17 15:46:43;;;;;;;1.60;1.50;;;;;;;;;;7331129;19;153467;-13
2022/01/17 15:49:16;;;;;;;2.08;1.88;;;;;;;;;;7327277;19;161787;-16
2022/01/17 15:51:47;;;;;;;2.20;2.00;;;;;;;;;;7330373;19;162353;-13
2022/01/17 15:54:21;;;;;;;1.73;1.63;;;;;;;;;;7330655;19;154613;-14
2022/01/17 15:56:55;;;;;;;1.65;1.55;;;;;;;;;;7330584;19;153686;-14
2022/01/17 15:59:28;;;;;;;1.90;1.50;;;;;;;;;;7329991;19;161970;-13
2022/01/17 16:02:00;;;;;;;1.50;1.40;;;;;;;;;;7329748;19;162391;-14
2022/01/17 16:04:31;;;;;;;1.40;1.30;;;;;;;;;;7329880;19;153945;-13
2022/01/17 16:07:02;;;;;;;1.48;1.38;;;;;;;;;;7329900;19;153746;-13
2022/01/17 16:09:36;;;;;;;2.15;1.60;;;;;;;;;;7327015;19;162010;-14
2022/01/17 16:12:08;;;;;;;1.58;1.48;;;;;;;;;;7329110;19;162364;-13
2022/01/17 16:14:40;;;;;;;1.47;1.37;;;;;;;;;;7329645;19;153993;-14
2022/01/17 16:17:11;;;;;;;1.70;1.40;;;;;;;;;;7329441;19;153420;-13
2022/01/17 16:19:42;;;;;;;1.10;1.10;;;;;;;;;;7328730;19;162221;-13
2022/01/17 16:22:19;;;;;;;2.85;1.60;;;;;;;;;;7328509;19;162315;-14
2022/01/17 16:24:52;;;;;;;1.55;1.40;;;;;;;;;;7329104;19;154260;-14
2022/01/17 16:27:24;;;;;;;1.30;1.20;;;;;;;;;;7327875;19;153565;-14
2022/01/17 16:29:57;;;;;;;1.20;1.17;;;;;;;;;;7326146;19;161841;-15
2022/01/17 16:32:29;;;;;;;1.20;1.10;;;;;;;;;;7328345;19;162453;-15
2022/01/17 16:35:00;;;;;;;1.52;1.40;;;;;;;;;;7326064;19;154042;-13
2022/01/17 16:37:31;;;;;;;1.45;1.25;;;;;;;;;;7328634;19;153506;-13
2022/01/17 16:40:06;;;;;;;1.15;1.15;;;;;;;;;;7328105;19;161772;-14
2022/01/17 16:42:37;;;;;;;0.80;0.80;;;;;;;;;;7328179;19;162349;-14
2022/01/17 16:45:11;;;;;;;1.63;1.50;;;;;;;;;;7330543;19;154104;-13
2022/01/17 16:47:43;;;;;;;1.37;1.20;;;;;;;;;;7335310;19;153670;-13
2022/01/17 16:50:16;;;;;;;1.58;1.48;;;;;;;;;;7332722;19;161784;-14
2022/01/17 16:52:47;;;;;;;1.50;1.40;;;;;;;;;;7335021;19;162501;-13
2022/01/17 16:55:21;;;;;;;1.05;1.00;;;;;;;;;;7335040;19;154165;-13
2022/01/17 16:57:53;;;;;;;1.15;1.15;;;;;;;;;;7334819;19;153487;-13
2022/01/17 17:00:24;;;;;;;1.30;1.20;;;;;;;;;;7334557;19;161717;-13
2022/01/17 17:02:55;;;;;;;1.13;1.13;;;;;;;;;;7333225;19;162688;-14
2022/01/17 17:05:26;;;;;;;1.52;1.40;;;;;;;;;;7334820;19;153966;-14
2022/01/17 17:07:59;;;;;;;1.10;1.10;;;;;;;;;;7334617;19;153566;-14
2022/01/17 17:10:33;;;;;;;1.30;1.20;;;;;;;;;;7330716;19;161869;-14
2022/01/17 17:13:05;;;;;;;1.40;1.30;;;;;;;;;;7334123;19;162442;-13
2022/01/17 17:15:36;;;;;;;1.05;1.05;;;;;;;;;;7334273;19;153932;-13
2022/01/17 17:18:08;;;;;;;1.20;1.10;;;;;;;;;;7334127;19;153647;-13
2022/01/17 17:20:40;;;;;;;1.25;1.15;;;;;;;;;;7333566;19;161772;-14
2022/01/17 17:23:11;;;;;;;1.00;1.00;;;;;;;;;;7333655;19;162316;-13
2022/01/17 17:25:45;;;;;;;1.08;1.08;;;;;;;;;;7334146;19;154210;-14
2022/01/17 17:28:16;;;;;;;1.25;1.10;;;;;;;;;;7334318;19;153499;-14
2022/01/17 17:30:50;;;;;;;1.08;1.08;;;;;;;;;;7331447;19;162011;-13
2022/01/17 17:33:24;;;;;;;1.02;1.02;;;;;;;;;;7333048;19;162354;-14
2022/01/17 17:35:55;;;;;;;1.30;1.00;;;;;;;;;;7334243;19;153964;-14
2022/01/17 17:38:27;;;;;;;1.25;1.08;;;;;;;;;;7334080;19;153531;-15
2022/01/17 17:41:01;;;;;;;1.08;1.08;;;;;;;;;;7333737;19;161801;-14
2022/01/17 17:43:32;;;;;;;0.93;0.93;;;;;;;;;;7333543;19;162366;-14
2022/01/17 17:46:20;;;;;;;1.20;1.20;;;;;;;;;;7333892;19;153968;-14
2022/01/17 17:48:51;;;;;;;1.05;0.95;;;;;;;;;;7333725;19;153707;-13
2022/01/17 17:51:23;;;;;;;1.15;0.98;;;;;;;;;;7333589;19;161800;-14
2022/01/17 17:53:54;;;;;;;0.95;0.95;;;;;;;;;;7333579;19;162546;-15
2022/01/17 17:56:28;;;;;;;0.90;0.90;;;;;;;;;;7332821;19;154011;-14
2022/01/17 17:59:00;;;;;;;1.08;1.08;;;;;;;;;;7333848;19;153627;-14
2022/01/17 18:01:32;;;;;;;1.87;0.90;;;;;;;;;;7333569;19;161991;-15
2022/01/17 18:04:09;;;;;;;0.90;0.90;;;;;;;;;;7333334;19;162341;-15
2022/01/17 18:06:41;;;;;;;1.00;1.00;;;;;;;;;;7333632;19;153966;-14
2022/01/17 18:09:13;;;;;;;1.10;1.10;;;;;;;;;;7333407;19;153971;-14
2022/01/17 18:11:48;;;;;;;1.00;1.00;;;;;;;;;;7332888;19;162122;-14
2022/01/17 18:14:19;;;;;;;1.25;1.17;;;;;;;;;;7332927;19;162413;-14
2022/01/17 18:16:51;;;;;;;1.13;1.00;;;;;;;;;;7333341;19;153982;-13
2022/01/17 18:19:22;;;;;;;1.20;1.20;;;;;;;;;;7333212;19;153537;-13
2022/01/17 18:21:54;;;;;;;1.00;1.00;;;;;;;;;;7332736;19;162039;-13
2022/01/17 18:24:25;;;;;;;1.10;1.10;;;;;;;;;;7332682;19;162391;-14
2022/01/17 18:26:59;;;;;;;1.00;1.00;;;;;;;;;;7333091;19;153957;-14
2022/01/17 18:29:30;;;;;;;0.95;0.95;;;;;;;;;;7331607;19;153500;-13
2022/01/17 18:32:02;;;;;;;1.10;1.10;;;;;;;;;;7332361;19;161883;-13
2022/01/17 18:34:35;;;;;;;1.00;1.00;;;;;;;;;;7330146;19;162331;-13
2022/01/17 18:37:06;;;;;;;1.00;1.00;;;;;;;;;;7332492;19;153978;-13
2022/01/17 18:39:38;;;;;;;1.00;1.00;;;;;;;;;;7331366;19;153832;-13
2022/01/17 18:42:12;;;;;;;1.00;1.00;;;;;;;;;;7331900;19;161906;-14
2022/01/17 18:44:44;;;;;;;1.02;0.93;;;;;;;;;;7332179;19;162358;-15
2022/01/17 18:47:15;;;;;;;1.10;1.10;;;;;;;;;;7332149;19;153721;-14
2022/01/17 18:49:47;;;;;;;1.50;1.40;;;;;;;;;;7331755;19;153692;-15
2022/01/17 18:52:28;;;;;;;1.42;1.15;;;;;;;;;;7331950;19;162022;-13
2022/01/17 18:55:00;;;;;;;1.35;1.20;;;;;;;;;;7331711;19;162386;-13
2022/01/17 18:57:33;;;;;;;1.05;1.05;;;;;;;;;;7332137;19;154262;-14
2022/01/17 19:00:06;;;;;;;1.42;1.17;;;;;;;;;;7331777;19;153644;-14
2022/01/17 19:02:37;;;;;;;0.90;0.90;;;;;;;;;;7331644;19;161799;-14
2022/01/17 19:05:10;;;;;;;1.30;1.20;;;;;;;;;;7331177;19;162491;-13
2022/01/17 19:07:41;;;;;;;1.02;1.02;;;;;;;;;;7328004;19;154066;-14
2022/01/17 19:10:13;;;;;;;1.13;1.13;;;;;;;;;;7329825;19;153709;-14
2022/01/17 19:12:50;;;;;;;1.27;1.20;;;;;;;;;;7330835;19;161790;-14
2022/01/17 19:15:23;;;;;;;1.42;0.98;;;;;;;;;;7330641;19;162447;-14
2022/01/17 19:17:59;;;;;;;0.82;0.82;;;;;;;;;;7331273;19;153988;-15
2022/01/17 19:20:52;;;;;;;1.10;1.10;;;;;;;;;;7331084;19;153610;-14
2022/01/17 19:23:23;;;;;;;1.13;1.13;;;;;;;;;;7330867;19;161842;-14
2022/01/17 19:25:55;;;;;;;1.05;0.95;;;;;;;;;;7330904;19;162529;-14
2022/01/17 19:28:28;;;;;;;1.15;1.05;;;;;;;;;;7332142;19;153936;-15
2022/01/17 19:31:00;;;;;;;1.35;1.05;;;;;;;;;;7333210;19;153597;-15
2022/01/17 19:33:31;;;;;;;1.02;1.00;;;;;;;;;;7328849;19;161985;-16
2022/01/17 19:36:02;;;;;;;0.95;0.95;;;;;;;;;;7329867;19;162550;-14
2022/01/17 19:38:34;;;;;;;1.20;1.10;;;;;;;;;;7330217;19;153985;-15
2022/01/17 19:41:06;;;;;;;1.10;1.10;;;;;;;;;;7330567;19;153477;-16
2022/01/17 19:43:40;;;;;;;1.20;1.10;;;;;;;;;;7329135;19;161905;-15
2022/01/17 19:46:12;;;;;;;1.15;1.10;;;;;;;;;;7330230;19;162355;-14
2022/01/17 19:48:45;;;;;;;1.08;1.08;;;;;;;;;;7330620;19;154025;-13
2022/01/17 19:51:16;;;;;;;1.25;1.00;;;;;;;;;;7329395;19;153481;-14
2022/01/17 19:53:47;;;;;;;1.10;1.10;;;;;;;;;;7330266;19;161857;-13
2022/01/17 19:56:19;;;;;;;1.10;1.10;;;;;;;;;;7330166;19;162365;-14
2022/01/17 19:58:56;;;;;;;1.05;1.05;;;;;;;;;;7330257;19;154173;-14
2022/01/17 20:01:27;;;;;;;0.90;0.90;;;;;;;;;;7329139;19;153974;-13
2022/01/17 20:03:59;;;;;;;1.10;1.10;;;;;;;;;;7329774;19;162056;-14
2022/01/17 20:06:30;;;;;;;2.38;2.10;;;;;;;;;;7329860;19;162299;-15
2022/01/17 20:09:02;;;;;;;4.28;2.72;;;;;;;;;;7330007;19;154260;-14
2022/01/17 20:11:34;;;;;;;2.63;2.40;;;;;;;;;;7328458;19;153505;-14
2022/01/17 20:14:08;;;;;;;3.53;2.60;;;;;;;;;;7329354;19;161826;-15
2022/01/17 20:16:40;;;;;;;2.00;1.80;;;;;;;;;;7329845;19;162529;-14
2022/01/17 20:19:11;;;;;;;2.13;1.92;;;;;;;;;;7331687;19;154230;-15
2022/01/17 20:21:43;;;;;;;2.30;2.10;;;;;;;;;;7331544;19;153517;-15
2022/01/17 20:24:16;;;;;;;2.47;2.28;;;;;;;;;;7328742;19;161774;-14
2022/01/17 20:26:49;;;;;;;2.85;2.33;;;;;;;;;;7328873;19;162327;-15
2022/01/17 20:29:22;;;;;;;2.40;2.20;;;;;;;;;;7329716;19;153956;-13
2022/01/17 20:31:55;;;;;;;3.40;2.13;;;;;;;;;;7327802;19;153536;-13
2022/01/17 20:34:27;;;;;;;2.50;1.83;;;;;;;;;;7326663;19;161956;-16
2022/01/17 20:36:58;;;;;;;2.22;2.00;;;;;;;;;;7327304;19;162374;-14
2022/01/17 20:39:29;;;;;;;2.60;1.88;;;;;;;;;;7328630;19;153973;-12
2022/01/17 20:42:02;;;;;;;2.40;1.80;;;;;;;;;;7328559;19;153518;-13
2022/01/17 20:44:37;;;;;;;1.98;1.73;;;;;;;;;;7327967;19;162022;-16
2022/01/17 20:47:08;;;;;;;3.40;2.30;;;;;;;;;;7328052;19;162415;-13
2022/01/17 20:49:40;;;;;;;3.42;2.03;;;;;;;;;;7327464;19;154239;-16
2022/01/17 20:52:12;;;;;;;1.88;1.75;;;;;;;;;;7327099;19;153641;-14
2022/01/17 20:54:46;;;;;;;1.77;1.67;;;;;;;;;;7330774;19;162300;-14
2022/01/17 20:57:18;;;;;;;2.88;1.92;;;;;;;;;;7330991;19;162154;-15
2022/01/17 20:59:53;;;;;;;1.92;1.75;;;;;;;;;;7330379;19;154014;-15
2022/01/17 21:02:24;;;;;;;2.00;1.58;;;;;;;;;;7330845;19;153507;-15
2022/01/17 21:04:56;;;;;;;3.65;1.70;;;;;;;;;;7330475;19;161794;-14
2022/01/17 21:07:27;;;;;;;2.10;1.90;;;;;;;;;;7329902;19;162899;-13
2022/01/17 21:09:59;;;;;;;2.53;2.33;;;;;;;;;;7330537;19;154040;-14
2022/01/17 21:12:30;;;;;;;4.35;2.40;;;;;;;;;;7328951;19;153582;-14
2022/01/17 21:15:05;;;;;;;8.32;7.63;;;;;;;;;;7329618;19;161807;-14
2022/01/17 21:17:37;;;;;;;8.35;6.45;;;;;;;;;;7330451;19;162636;-13
2022/01/17 21:20:11;;;;;;;3.65;3.35;;;;;;;;;;7329327;19;154140;-13
2022/01/17 21:22:42;;;;;;;3.20;2.88;;;;;;;;;;7330705;19;153691;-13
2022/01/17 21:25:14;;;;;;;4.05;3.30;;;;;;;;;;7330075;19;161819;-14
2022/01/17 21:27:45;;;;;;;3.20;3.00;;;;;;;;;;7329426;19;162831;-14
2022/01/17 21:30:19;;;;;;;3.83;3.53;;;;;;;;;;7329724;19;153973;-13
2022/01/17 21:32:51;;;;;;;3.50;3.20;;;;;;;;;;7336072;19;153858;-15
2022/01/17 21:35:23;;;;;;;4.43;3.33;;;;;;;;;;7337140;19;161840;-14
2022/01/17 21:37:54;;;;;;;3.90;3.50;;;;;;;;;;7337299;19;162326;-14
2022/01/17 21:40:26;;;;;;;2.97;2.72;;;;;;;;;;7337231;19;153965;-13
2022/01/17 21:42:57;;;;;;;3.35;3.05;;;;;;;;;;7336562;19;153648;-15
2022/01/17 21:45:31;;;;;;;4.13;3.30;;;;;;;;;;7336240;19;161940;-14
2022/01/17 21:48:03;;;;;;;4.35;3.10;;;;;;;;;;7336315;19;162506;-14
2022/01/17 21:50:36;;;;;;;3.58;3.28;;;;;;;;;;7335170;19;153958;-13
2022/01/17 21:53:07;;;;;;;;;;;;;;;;;;7335877;19;153517;-13
2022/01/17 21:55:38;;;;;;;3.42;3.13;;;;;;;;;;7336154;19;161999;-13
2022/01/17 21:58:11;;;;;;;3.63;3.00;;;;;;;;;;7336380;19;162311;-14
2022/01/17 22:00:45;;;;;;;3.65;3.35;;;;;;;;;;7335763;19;154032;-14
2022/01/17 22:03:16;;;;;;;3.17;2.97;;;;;;;;;;7333853;19;153559;-14
2022/01/17 22:05:48;;;;;;;2.95;2.63;;;;;;;;;;7335700;19;162052;-15
2022/01/17 22:08:22;;;;;;;3.88;3.47;;;;;;;;;;7335936;19;162526;-14
2022/01/17 22:10:53;;;;;;;3.42;2.95;;;;;;;;;;7334743;19;154367;-15
2022/01/17 22:13:25;;;;;;;4.07;3.35;;;;;;;;;;7333587;19;154919;-18
2022/01/17 22:16:00;;;;;;;3.15;2.90;;;;;;;;;;7334334;19;161959;-15
2022/01/17 22:18:32;;;;;;;4.28;3.15;;;;;;;;;;7335322;19;162380;-14
2022/01/17 22:21:03;;;;;;;3.60;2.75;;;;;;;;;;7335614;19;154448;-14
2022/01/17 22:23:36;;;;;;;3.08;2.83;;;;;;;;;;7336067;19;153481;-15
2022/01/17 22:26:09;;;;;;;3.45;3.17;;;;;;;;;;7334708;19;161930;-13
2022/01/17 22:28:42;;;;;;;2.75;2.55;;;;;;;;;;7333987;19;162581;-15
2022/01/17 22:31:16;;;;;;;3.85;3.15;;;;;;;;;;7334092;19;154043;-14
2022/01/17 22:33:47;;;;;;;3.67;3.08;;;;;;;;;;7330700;19;153736;-15
2022/01/17 22:36:19;;;;;;;3.70;3.08;;;;;;;;;;7331041;19;161830;-13
2022/01/17 22:38:51;;;;;;;6.00;3.50;;;;;;;;;;7331733;19;162210;-15
2022/01/17 22:41:22;;;;;;;3.83;3.53;;;;;;;;;;7332973;19;153996;-14
2022/01/17 22:43:54;;;;;;;3.38;3.10;;;;;;;;;;7332387;19;153585;-14
2022/01/17 22:46:28;;;;;;;3.08;2.85;;;;;;;;;;7333726;19;161812;-16
2022/01/17 22:49:00;;;;;;;7.88;7.07;;;;;;;;;;7329162;19;162588;-14
2022/01/17 22:51:34;;;;;;;7.88;6.65;;;;;;;;;;7329998;19;154440;-14
